sensor_id;sensor_type;location;lat;lon;timestamp;P1;durP1;ratioP1;P2;durP2;ratioP2
55312;SDS011;46892;45.668;11.756;2023-07-31T00:01:15;3.90;;;3.03;;
55312;SDS011;46892;45.668;11.756;2023-07-31T00:03:41;6.53;;;3.50;;
55312;SDS011;46892;45.668;11.756;2023-07-31T00:06:06;6.17;;;2.80;;
55312;SDS011;46892;45.668;11.756;2023-07-31T00:08:32;5.80;;;2.83;;
55312;SDS011;46892;45.668;11.756;2023-07-31T00:10:58;4.40;;;2.70;;
55312;SDS011;46892;45.668;11.756;2023-07-31T00:13:23;6.60;;;2.53;;
55312;SDS011;46892;45.668;11.756;2023-07-31T00:15:49;5.37;;;2.87;;
55312;SDS011;46892;45.668;11.756;2023-07-31T00:18:15;4.33;;;2.60;;
55312;SDS011;46892;45.668;11.756;2023-07-31T00:20:41;4.07;;;2.63;;
55312;SDS011;46892;45.668;11.756;2023-07-31T00:23:07;4.17;;;2.70;;
55312;SDS011;46892;45.668;11.756;2023-07-31T00:25:32;3.53;;;2.63;;
55312;SDS011;46892;45.668;11.756;2023-07-31T00:27:58;3.83;;;2.37;;
55312;SDS011;46892;45.668;11.756;2023-07-31T00:30:24;3.60;;;2.83;;
55312;SDS011;46892;45.668;11.756;2023-07-31T00:32:50;5.00;;;2.77;;
55312;SDS011;46892;45.668;11.756;2023-07-31T00:35:16;4.53;;;2.47;;
55312;SDS011;46892;45.668;11.756;2023-07-31T00:37:41;5.27;;;2.70;;
55312;SDS011;46892;45.668;11.756;2023-07-31T00:40:07;4.03;;;2.60;;
55312;SDS011;46892;45.668;11.756;2023-07-31T00:42:33;5.23;;;2.80;;
55312;SDS011;46892;45.668;11.756;2023-07-31T00:44:59;3.40;;;2.80;;
55312;SDS011;46892;45.668;11.756;2023-07-31T00:47:25;3.80;;;2.75;;
55312;SDS011;46892;45.668;11.756;2023-07-31T00:49:51;3.90;;;3.00;;
55312;SDS011;46892;45.668;11.756;2023-07-31T00:52:17;4.33;;;3.40;;
55312;SDS011;46892;45.668;11.756;2023-07-31T00:54:44;5.90;;;2.93;;
55312;SDS011;46892;45.668;11.756;2023-07-31T00:57:10;5.10;;;2.72;;
55312;SDS011;46892;45.668;11.756;2023-07-31T00:59:36;2.97;;;2.40;;
55312;SDS011;46892;45.668;11.756;2023-07-31T01:02:02;4.65;;;2.55;;
55312;SDS011;46892;45.668;11.756;2023-07-31T01:04:28;4.97;;;2.67;;
55312;SDS011;46892;45.668;11.756;2023-07-31T01:09:49;7.00;;;2.80;;
55312;SDS011;46892;45.668;11.756;2023-07-31T01:12:17;3.10;;;2.53;;
55312;SDS011;46892;45.668;11.756;2023-07-31T01:17:30;4.23;;;2.87;;
55312;SDS011;46892;45.668;11.756;2023-07-31T01:19:57;3.88;;;2.88;;
55312;SDS011;46892;45.668;11.756;2023-07-31T01:28:25;3.97;;;2.40;;
55312;SDS011;46892;45.668;11.756;2023-07-31T01:31:01;5.50;;;3.33;;
55312;SDS011;46892;45.668;11.756;2023-07-31T01:33:29;4.97;;;3.07;;
55312;SDS011;46892;45.668;11.756;2023-07-31T01:35:55;3.93;;;2.97;;
55312;SDS011;46892;45.668;11.756;2023-07-31T01:38:21;7.63;;;3.23;;
55312;SDS011;46892;45.668;11.756;2023-07-31T01:40:51;5.10;;;3.37;;
55312;SDS011;46892;45.668;11.756;2023-07-31T01:43:17;4.78;;;3.13;;
55312;SDS011;46892;45.668;11.756;2023-07-31T01:45:43;5.13;;;2.77;;
55312;SDS011;46892;45.668;11.756;2023-07-31T01:48:09;5.17;;;3.20;;
55312;SDS011;46892;45.668;11.756;2023-07-31T01:50:34;3.97;;;3.47;;
55312;SDS011;46892;45.668;11.756;2023-07-31T01:53:00;6.43;;;3.63;;
55312;SDS011;46892;45.668;11.756;2023-07-31T01:55:26;6.20;;;3.00;;
55312;SDS011;46892;45.668;11.756;2023-07-31T01:57:52;7.17;;;4.17;;
55312;SDS011;46892;45.668;11.756;2023-07-31T02:00:18;4.70;;;3.17;;
55312;SDS011;46892;45.668;11.756;2023-07-31T02:02:44;6.00;;;3.77;;
55312;SDS011;46892;45.668;11.756;2023-07-31T02:05:09;7.63;;;3.63;;
55312;SDS011;46892;45.668;11.756;2023-07-31T02:07:35;4.93;;;3.20;;
55312;SDS011;46892;45.668;11.756;2023-07-31T02:10:01;7.20;;;4.07;;
55312;SDS011;46892;45.668;11.756;2023-07-31T02:12:27;10.33;;;3.93;;
55312;SDS011;46892;45.668;11.756;2023-07-31T02:14:55;7.57;;;3.63;;
55312;SDS011;46892;45.668;11.756;2023-07-31T02:17:21;7.13;;;4.10;;
55312;SDS011;46892;45.668;11.756;2023-07-31T02:19:46;5.33;;;3.80;;
55312;SDS011;46892;45.668;11.756;2023-07-31T02:22:12;5.10;;;3.83;;
55312;SDS011;46892;45.668;11.756;2023-07-31T02:24:38;5.23;;;3.43;;
55312;SDS011;46892;45.668;11.756;2023-07-31T02:27:04;6.37;;;3.60;;
55312;SDS011;46892;45.668;11.756;2023-07-31T02:29:30;7.80;;;3.70;;
55312;SDS011;46892;45.668;11.756;2023-07-31T02:31:56;5.33;;;4.10;;
55312;SDS011;46892;45.668;11.756;2023-07-31T02:34:21;5.60;;;3.53;;
55312;SDS011;46892;45.668;11.756;2023-07-31T02:36:47;5.33;;;3.67;;
55312;SDS011;46892;45.668;11.756;2023-07-31T02:39:13;5.80;;;3.80;;
55312;SDS011;46892;45.668;11.756;2023-07-31T02:41:38;10.07;;;4.43;;
55312;SDS011;46892;45.668;11.756;2023-07-31T02:44:04;6.33;;;3.90;;
55312;SDS011;46892;45.668;11.756;2023-07-31T02:46:30;6.33;;;4.00;;
55312;SDS011;46892;45.668;11.756;2023-07-31T02:48:56;7.80;;;4.00;;
55312;SDS011;46892;45.668;11.756;2023-07-31T02:51:22;9.57;;;4.07;;
55312;SDS011;46892;45.668;11.756;2023-07-31T02:53:48;6.63;;;3.97;;
55312;SDS011;46892;45.668;11.756;2023-07-31T02:56:14;8.17;;;4.33;;
55312;SDS011;46892;45.668;11.756;2023-07-31T02:58:40;11.27;;;4.37;;
55312;SDS011;46892;45.668;11.756;2023-07-31T03:01:06;12.23;;;4.90;;
55312;SDS011;46892;45.668;11.756;2023-07-31T03:03:31;7.23;;;4.20;;
55312;SDS011;46892;45.668;11.756;2023-07-31T03:05:57;10.23;;;3.93;;
55312;SDS011;46892;45.668;11.756;2023-07-31T03:08:23;11.07;;;4.40;;
55312;SDS011;46892;45.668;11.756;2023-07-31T03:10:48;8.63;;;4.30;;
55312;SDS011;46892;45.668;11.756;2023-07-31T03:13:14;13.63;;;4.67;;
55312;SDS011;46892;45.668;11.756;2023-07-31T03:15:43;7.20;;;4.30;;
55312;SDS011;46892;45.668;11.756;2023-07-31T03:18:08;10.57;;;4.80;;
55312;SDS011;46892;45.668;11.756;2023-07-31T03:20:34;6.67;;;4.07;;
55312;SDS011;46892;45.668;11.756;2023-07-31T03:23:00;9.87;;;4.57;;
55312;SDS011;46892;45.668;11.756;2023-07-31T03:25:26;15.13;;;5.00;;
55312;SDS011;46892;45.668;11.756;2023-07-31T03:27:51;9.00;;;4.17;;
55312;SDS011;46892;45.668;11.756;2023-07-31T03:30:17;6.57;;;3.97;;
55312;SDS011;46892;45.668;11.756;2023-07-31T03:32:43;4.27;;;3.53;;
55312;SDS011;46892;45.668;11.756;2023-07-31T03:35:09;5.50;;;3.73;;
55312;SDS011;46892;45.668;11.756;2023-07-31T03:37:34;4.53;;;3.63;;
55312;SDS011;46892;45.668;11.756;2023-07-31T03:40:00;5.60;;;3.37;;
55312;SDS011;46892;45.668;11.756;2023-07-31T03:42:26;5.33;;;3.30;;
55312;SDS011;46892;45.668;11.756;2023-07-31T03:44:52;4.07;;;3.53;;
55312;SDS011;46892;45.668;11.756;2023-07-31T03:47:17;4.00;;;3.33;;
55312;SDS011;46892;45.668;11.756;2023-07-31T03:49:43;4.97;;;3.37;;
55312;SDS011;46892;45.668;11.756;2023-07-31T03:52:09;3.93;;;3.20;;
55312;SDS011;46892;45.668;11.756;2023-07-31T03:54:34;6.93;;;3.83;;
55312;SDS011;46892;45.668;11.756;2023-07-31T03:57:00;4.57;;;3.37;;
55312;SDS011;46892;45.668;11.756;2023-07-31T03:59:26;4.47;;;3.17;;
55312;SDS011;46892;45.668;11.756;2023-07-31T04:01:51;5.27;;;3.63;;
55312;SDS011;46892;45.668;11.756;2023-07-31T04:04:17;3.50;;;3.00;;
55312;SDS011;46892;45.668;11.756;2023-07-31T04:06:43;5.00;;;3.20;;
55312;SDS011;46892;45.668;11.756;2023-07-31T04:09:09;3.77;;;3.23;;
55312;SDS011;46892;45.668;11.756;2023-07-31T04:11:35;4.60;;;3.20;;
55312;SDS011;46892;45.668;11.756;2023-07-31T04:14:00;4.90;;;3.40;;
55312;SDS011;46892;45.668;11.756;2023-07-31T04:16:26;5.33;;;3.50;;
55312;SDS011;46892;45.668;11.756;2023-07-31T04:18:52;3.50;;;3.20;;
55312;SDS011;46892;45.668;11.756;2023-07-31T04:21:18;4.97;;;3.53;;
55312;SDS011;46892;45.668;11.756;2023-07-31T04:23:43;5.63;;;2.97;;
55312;SDS011;46892;45.668;11.756;2023-07-31T04:26:09;3.00;;;2.70;;
55312;SDS011;46892;45.668;11.756;2023-07-31T04:28:35;3.57;;;3.03;;
55312;SDS011;46892;45.668;11.756;2023-07-31T04:31:03;5.10;;;2.97;;
55312;SDS011;46892;45.668;11.756;2023-07-31T04:33:29;4.33;;;2.90;;
55312;SDS011;46892;45.668;11.756;2023-07-31T04:35:54;5.13;;;2.77;;
55312;SDS011;46892;45.668;11.756;2023-07-31T04:38:20;3.80;;;2.90;;
55312;SDS011;46892;45.668;11.756;2023-07-31T04:40:46;4.57;;;2.53;;
55312;SDS011;46892;45.668;11.756;2023-07-31T04:43:12;4.10;;;2.80;;
55312;SDS011;46892;45.668;11.756;2023-07-31T04:45:38;4.77;;;2.77;;
55312;SDS011;46892;45.668;11.756;2023-07-31T04:48:04;3.30;;;2.70;;
55312;SDS011;46892;45.668;11.756;2023-07-31T04:50:30;3.63;;;2.57;;
55312;SDS011;46892;45.668;11.756;2023-07-31T04:52:56;4.68;;;2.80;;
55312;SDS011;46892;45.668;11.756;2023-07-31T04:55:22;4.05;;;2.58;;
55312;SDS011;46892;45.668;11.756;2023-07-31T04:57:47;3.63;;;2.40;;
55312;SDS011;46892;45.668;11.756;2023-07-31T05:00:13;3.58;;;2.00;;
55312;SDS011;46892;45.668;11.756;2023-07-31T05:02:39;4.13;;;2.13;;
55312;SDS011;46892;45.668;11.756;2023-07-31T05:05:05;3.63;;;2.47;;
55312;SDS011;46892;45.668;11.756;2023-07-31T05:07:31;3.42;;;2.20;;
55312;SDS011;46892;45.668;11.756;2023-07-31T05:09:56;3.00;;;2.15;;
55312;SDS011;46892;45.668;11.756;2023-07-31T05:12:22;2.60;;;1.75;;
55312;SDS011;46892;45.668;11.756;2023-07-31T05:14:48;2.53;;;2.03;;
55312;SDS011;46892;45.668;11.756;2023-07-31T05:17:13;3.72;;;2.13;;
55312;SDS011;46892;45.668;11.756;2023-07-31T05:19:39;2.65;;;2.00;;
55312;SDS011;46892;45.668;11.756;2023-07-31T05:22:05;4.22;;;2.28;;
55312;SDS011;46892;45.668;11.756;2023-07-31T05:24:31;3.03;;;2.00;;
55312;SDS011;46892;45.668;11.756;2023-07-31T05:26:57;2.38;;;2.00;;
55312;SDS011;46892;45.668;11.756;2023-07-31T05:29:22;2.75;;;2.08;;
55312;SDS011;46892;45.668;11.756;2023-07-31T05:31:48;3.83;;;1.90;;
55312;SDS011;46892;45.668;11.756;2023-07-31T05:34:14;3.42;;;1.75;;
55312;SDS011;46892;45.668;11.756;2023-07-31T05:36:39;3.20;;;1.90;;
55312;SDS011;46892;45.668;11.756;2023-07-31T05:39:05;2.58;;;2.00;;
55312;SDS011;46892;45.668;11.756;2023-07-31T05:41:33;2.10;;;1.90;;
55312;SDS011;46892;45.668;11.756;2023-07-31T05:44:00;2.00;;;1.80;;
55312;SDS011;46892;45.668;11.756;2023-07-31T05:46:26;2.40;;;1.90;;
55312;SDS011;46892;45.668;11.756;2023-07-31T05:48:51;3.13;;;1.98;;
55312;SDS011;46892;45.668;11.756;2023-07-31T05:51:17;2.33;;;1.70;;
55312;SDS011;46892;45.668;11.756;2023-07-31T05:53:43;5.07;;;2.10;;
55312;SDS011;46892;45.668;11.756;2023-07-31T05:56:09;4.70;;;2.05;;
55312;SDS011;46892;45.668;11.756;2023-07-31T05:58:34;2.78;;;1.70;;
55312;SDS011;46892;45.668;11.756;2023-07-31T06:01:00;2.80;;;1.70;;
55312;SDS011;46892;45.668;11.756;2023-07-31T06:03:26;2.72;;;2.00;;
55312;SDS011;46892;45.668;11.756;2023-07-31T06:05:52;2.67;;;2.00;;
55312;SDS011;46892;45.668;11.756;2023-07-31T06:08:17;3.47;;;1.85;;
55312;SDS011;46892;45.668;11.756;2023-07-31T06:10:43;1.92;;;1.70;;
55312;SDS011;46892;45.668;11.756;2023-07-31T06:13:09;4.80;;;2.00;;
55312;SDS011;46892;45.668;11.756;2023-07-31T06:15:35;3.33;;;2.15;;
55312;SDS011;46892;45.668;11.756;2023-07-31T06:18:00;3.97;;;2.00;;
55312;SDS011;46892;45.668;11.756;2023-07-31T06:20:28;4.75;;;2.00;;
55312;SDS011;46892;45.668;11.756;2023-07-31T06:22:54;2.53;;;1.75;;
55312;SDS011;46892;45.668;11.756;2023-07-31T06:25:20;3.65;;;1.98;;
55312;SDS011;46892;45.668;11.756;2023-07-31T06:27:47;2.83;;;2.05;;
55312;SDS011;46892;45.668;11.756;2023-07-31T06:30:13;3.50;;;2.33;;
55312;SDS011;46892;45.668;11.756;2023-07-31T06:32:38;8.05;;;2.75;;
55312;SDS011;46892;45.668;11.756;2023-07-31T06:35:05;3.78;;;2.65;;
55312;SDS011;46892;45.668;11.756;2023-07-31T06:37:32;3.33;;;2.50;;
55312;SDS011;46892;45.668;11.756;2023-07-31T06:39:57;1.70;;;1.52;;
55312;SDS011;46892;45.668;11.756;2023-07-31T06:42:23;2.45;;;1.35;;
55312;SDS011;46892;45.668;11.756;2023-07-31T06:44:49;2.08;;;1.52;;
55312;SDS011;46892;45.668;11.756;2023-07-31T06:47:14;2.65;;;1.50;;
55312;SDS011;46892;45.668;11.756;2023-07-31T06:49:40;1.98;;;1.70;;
55312;SDS011;46892;45.668;11.756;2023-07-31T06:52:06;1.38;;;1.20;;
55312;SDS011;46892;45.668;11.756;2023-07-31T06:54:32;2.00;;;1.58;;
55312;SDS011;46892;45.668;11.756;2023-07-31T06:56:57;3.30;;;1.50;;
55312;SDS011;46892;45.668;11.756;2023-07-31T06:59:23;2.22;;;1.50;;
55312;SDS011;46892;45.668;11.756;2023-07-31T07:01:49;2.65;;;1.30;;
55312;SDS011;46892;45.668;11.756;2023-07-31T07:04:15;2.25;;;1.30;;
55312;SDS011;46892;45.668;11.756;2023-07-31T07:06:41;1.70;;;1.35;;
55312;SDS011;46892;45.668;11.756;2023-07-31T07:09:07;2.65;;;1.23;;
55312;SDS011;46892;45.668;11.756;2023-07-31T07:11:33;2.03;;;1.30;;
55312;SDS011;46892;45.668;11.756;2023-07-31T07:13:59;3.42;;;1.50;;
55312;SDS011;46892;45.668;11.756;2023-07-31T07:16:25;2.88;;;1.35;;
55312;SDS011;46892;45.668;11.756;2023-07-31T07:18:53;1.45;;;1.23;;
55312;SDS011;46892;45.668;11.756;2023-07-31T07:21:19;2.22;;;1.30;;
55312;SDS011;46892;45.668;11.756;2023-07-31T07:23:45;0.95;;;0.93;;
55312;SDS011;46892;45.668;11.756;2023-07-31T07:26:10;2.00;;;1.05;;
55312;SDS011;46892;45.668;11.756;2023-07-31T07:28:36;2.30;;;1.10;;
55312;SDS011;46892;45.668;11.756;2023-07-31T07:31:02;1.98;;;1.27;;
55312;SDS011;46892;45.668;11.756;2023-07-31T07:33:28;1.30;;;0.90;;
55312;SDS011;46892;45.668;11.756;2023-07-31T07:35:54;4.63;;;0.80;;
55312;SDS011;46892;45.668;11.756;2023-07-31T07:38:20;2.15;;;0.88;;
55312;SDS011;46892;45.668;11.756;2023-07-31T07:40:46;2.47;;;0.98;;
55312;SDS011;46892;45.668;11.756;2023-07-31T07:43:15;2.03;;;1.08;;
55312;SDS011;46892;45.668;11.756;2023-07-31T07:45:41;2.10;;;0.98;;
55312;SDS011;46892;45.668;11.756;2023-07-31T07:48:07;1.52;;;1.00;;
55312;SDS011;46892;45.668;11.756;2023-07-31T07:50:32;1.48;;;0.75;;
55312;SDS011;46892;45.668;11.756;2023-07-31T07:52:58;1.23;;;0.90;;
55312;SDS011;46892;45.668;11.756;2023-07-31T07:55:24;1.85;;;1.05;;
55312;SDS011;46892;45.668;11.756;2023-07-31T07:57:50;0.85;;;0.80;;
55312;SDS011;46892;45.668;11.756;2023-07-31T08:00:15;1.73;;;1.00;;
55312;SDS011;46892;45.668;11.756;2023-07-31T08:02:42;1.70;;;1.17;;
55312;SDS011;46892;45.668;11.756;2023-07-31T08:05:08;1.42;;;1.05;;
55312;SDS011;46892;45.668;11.756;2023-07-31T08:07:34;2.33;;;1.38;;
55312;SDS011;46892;45.668;11.756;2023-07-31T08:10:00;2.30;;;1.00;;
55312;SDS011;46892;45.668;11.756;2023-07-31T08:12:26;2.30;;;1.10;;
55312;SDS011;46892;45.668;11.756;2023-07-31T08:14:51;1.70;;;1.13;;
55312;SDS011;46892;45.668;11.756;2023-07-31T08:17:17;1.88;;;1.20;;
55312;SDS011;46892;45.668;11.756;2023-07-31T08:19:43;1.73;;;1.17;;
55312;SDS011;46892;45.668;11.756;2023-07-31T08:22:10;2.38;;;1.10;;
55312;SDS011;46892;45.668;11.756;2023-07-31T08:24:35;1.50;;;1.00;;
55312;SDS011;46892;45.668;11.756;2023-07-31T08:27:01;1.67;;;1.30;;
55312;SDS011;46892;45.668;11.756;2023-07-31T08:29:27;2.30;;;1.10;;
55312;SDS011;46892;45.668;11.756;2023-07-31T08:31:53;4.03;;;1.60;;
55312;SDS011;46892;45.668;11.756;2023-07-31T08:34:18;1.98;;;1.08;;
55312;SDS011;46892;45.668;11.756;2023-07-31T08:36:44;3.05;;;1.60;;
55312;SDS011;46892;45.668;11.756;2023-07-31T08:39:10;2.05;;;1.42;;
55312;SDS011;46892;45.668;11.756;2023-07-31T08:41:38;2.80;;;1.25;;
55312;SDS011;46892;45.668;11.756;2023-07-31T08:44:04;2.58;;;1.20;;
55312;SDS011;46892;45.668;11.756;2023-07-31T08:46:32;3.17;;;1.23;;
55312;SDS011;46892;45.668;11.756;2023-07-31T08:48:58;2.85;;;1.40;;
55312;SDS011;46892;45.668;11.756;2023-07-31T08:51:25;2.72;;;1.20;;
55312;SDS011;46892;45.668;11.756;2023-07-31T08:53:52;1.15;;;1.00;;
55312;SDS011;46892;45.668;11.756;2023-07-31T08:56:18;1.70;;;1.10;;
55312;SDS011;46892;45.668;11.756;2023-07-31T08:58:44;3.65;;;1.20;;
55312;SDS011;46892;45.668;11.756;2023-07-31T09:01:12;2.47;;;1.33;;
55312;SDS011;46892;45.668;11.756;2023-07-31T09:03:40;2.60;;;1.55;;
55312;SDS011;46892;45.668;11.756;2023-07-31T09:06:07;2.22;;;1.23;;
55312;SDS011;46892;45.668;11.756;2023-07-31T09:08:33;1.30;;;1.00;;
55312;SDS011;46892;45.668;11.756;2023-07-31T09:10:59;2.10;;;1.08;;
55312;SDS011;46892;45.668;11.756;2023-07-31T09:13:28;3.78;;;1.33;;
55312;SDS011;46892;45.668;11.756;2023-07-31T09:15:55;3.75;;;1.10;;
55312;SDS011;46892;45.668;11.756;2023-07-31T09:18:21;1.95;;;1.20;;
55312;SDS011;46892;45.668;11.756;2023-07-31T09:23:46;1.65;;;1.13;;
55312;SDS011;46892;45.668;11.756;2023-07-31T09:26:35;4.13;;;1.15;;
55312;SDS011;46892;45.668;11.756;2023-07-31T09:29:05;6.90;;;1.10;;
55312;SDS011;46892;45.668;11.756;2023-07-31T09:31:42;5.30;;;1.27;;
55312;SDS011;46892;45.668;11.756;2023-07-31T09:34:08;1.58;;;1.17;;
55312;SDS011;46892;45.668;11.756;2023-07-31T09:36:40;1.85;;;1.20;;
55312;SDS011;46892;45.668;11.756;2023-07-31T09:39:10;2.55;;;1.20;;
55312;SDS011;46892;45.668;11.756;2023-07-31T09:41:40;2.35;;;1.00;;
55312;SDS011;46892;45.668;11.756;2023-07-31T09:44:08;4.03;;;1.02;;
55312;SDS011;46892;45.668;11.756;2023-07-31T09:46:37;1.90;;;1.30;;
55312;SDS011;46892;45.668;11.756;2023-07-31T09:49:10;1.92;;;1.33;;
55312;SDS011;46892;45.668;11.756;2023-07-31T09:51:37;2.88;;;1.25;;
55312;SDS011;46892;45.668;11.756;2023-07-31T09:54:04;2.90;;;1.17;;
55312;SDS011;46892;45.668;11.756;2023-07-31T09:56:36;1.73;;;1.00;;
55312;SDS011;46892;45.668;11.756;2023-07-31T09:59:06;2.95;;;1.40;;
55312;SDS011;46892;45.668;11.756;2023-07-31T10:01:35;2.15;;;0.93;;
55312;SDS011;46892;45.668;11.756;2023-07-31T10:04:01;3.10;;;1.02;;
55312;SDS011;46892;45.668;11.756;2023-07-31T10:06:28;4.60;;;1.17;;
55312;SDS011;46892;45.668;11.756;2023-07-31T10:08:54;2.25;;;1.00;;
55312;SDS011;46892;45.668;11.756;2023-07-31T10:11:21;2.70;;;0.90;;
55312;SDS011;46892;45.668;11.756;2023-07-31T10:13:49;2.05;;;1.10;;
55312;SDS011;46892;45.668;11.756;2023-07-31T10:16:16;2.35;;;0.95;;
55312;SDS011;46892;45.668;11.756;2023-07-31T10:18:43;2.45;;;1.30;;
55312;SDS011;46892;45.668;11.756;2023-07-31T10:21:10;3.22;;;1.02;;
55312;SDS011;46892;45.668;11.756;2023-07-31T10:23:36;2.55;;;1.10;;
55312;SDS011;46892;45.668;11.756;2023-07-31T10:26:04;2.53;;;1.00;;
55312;SDS011;46892;45.668;11.756;2023-07-31T10:28:32;2.65;;;0.85;;
55312;SDS011;46892;45.668;11.756;2023-07-31T10:31:00;3.75;;;1.10;;
55312;SDS011;46892;45.668;11.756;2023-07-31T10:33:28;2.05;;;1.17;;
55312;SDS011;46892;45.668;11.756;2023-07-31T10:36:13;3.13;;;1.00;;
55312;SDS011;46892;45.668;11.756;2023-07-31T10:38:42;2.28;;;1.02;;
55312;SDS011;46892;45.668;11.756;2023-07-31T10:41:11;1.30;;;0.98;;
55312;SDS011;46892;45.668;11.756;2023-07-31T10:43:37;2.03;;;1.17;;
55312;SDS011;46892;45.668;11.756;2023-07-31T10:46:11;1.30;;;1.00;;
55312;SDS011;46892;45.668;11.756;2023-07-31T10:48:38;1.95;;;1.17;;
55312;SDS011;46892;45.668;11.756;2023-07-31T10:51:10;1.65;;;1.20;;
55312;SDS011;46892;45.668;11.756;2023-07-31T10:53:37;1.70;;;1.00;;
55312;SDS011;46892;45.668;11.756;2023-07-31T10:56:06;1.95;;;1.08;;
55312;SDS011;46892;45.668;11.756;2023-07-31T10:58:40;1.60;;;1.00;;
55312;SDS011;46892;45.668;11.756;2023-07-31T11:01:11;1.40;;;1.08;;
55312;SDS011;46892;45.668;11.756;2023-07-31T11:06:13;1.27;;;0.85;;
55312;SDS011;46892;45.668;11.756;2023-07-31T11:08:43;1.60;;;0.93;;
55312;SDS011;46892;45.668;11.756;2023-07-31T11:11:13;1.95;;;0.90;;
55312;SDS011;46892;45.668;11.756;2023-07-31T11:16:22;1.77;;;0.85;;
55312;SDS011;46892;45.668;11.756;2023-07-31T11:18:49;1.90;;;0.80;;
55312;SDS011;46892;45.668;11.756;2023-07-31T11:21:20;2.20;;;1.00;;
55312;SDS011;46892;45.668;11.756;2023-07-31T11:23:47;1.77;;;1.00;;
55312;SDS011;46892;45.668;11.756;2023-07-31T11:26:14;1.08;;;0.98;;
55312;SDS011;46892;45.668;11.756;2023-07-31T11:28:41;1.55;;;1.17;;
55312;SDS011;46892;45.668;11.756;2023-07-31T11:31:10;1.90;;;0.95;;
55312;SDS011;46892;45.668;11.756;2023-07-31T11:33:36;1.67;;;0.80;;
55312;SDS011;46892;45.668;11.756;2023-07-31T11:36:02;1.20;;;1.00;;
55312;SDS011;46892;45.668;11.756;2023-07-31T11:38:31;1.63;;;0.80;;
55312;SDS011;46892;45.668;11.756;2023-07-31T11:40:58;1.65;;;0.90;;
55312;SDS011;46892;45.668;11.756;2023-07-31T11:43:27;2.35;;;1.17;;
55312;SDS011;46892;45.668;11.756;2023-07-31T11:45:54;1.42;;;1.10;;
55312;SDS011;46892;45.668;11.756;2023-07-31T11:48:22;1.85;;;1.10;;
55312;SDS011;46892;45.668;11.756;2023-07-31T11:50:53;1.63;;;0.90;;
55312;SDS011;46892;45.668;11.756;2023-07-31T11:56:10;1.10;;;0.73;;
55312;SDS011;46892;45.668;11.756;2023-07-31T11:58:38;2.50;;;1.10;;
55312;SDS011;46892;45.668;11.756;2023-07-31T12:01:05;1.60;;;1.00;;
55312;SDS011;46892;45.668;11.756;2023-07-31T12:03:32;1.85;;;1.08;;
55312;SDS011;46892;45.668;11.756;2023-07-31T12:05:59;1.45;;;1.08;;
55312;SDS011;46892;45.668;11.756;2023-07-31T12:08:25;1.73;;;0.90;;
55312;SDS011;46892;45.668;11.756;2023-07-31T12:10:52;1.48;;;0.90;;
55312;SDS011;46892;45.668;11.756;2023-07-31T12:13:22;1.30;;;1.05;;
55312;SDS011;46892;45.668;11.756;2023-07-31T12:15:53;2.08;;;1.00;;
55312;SDS011;46892;45.668;11.756;2023-07-31T12:18:21;1.80;;;0.90;;
55312;SDS011;46892;45.668;11.756;2023-07-31T12:20:48;0.80;;;0.80;;
55312;SDS011;46892;45.668;11.756;2023-07-31T12:23:20;2.17;;;1.00;;
55312;SDS011;46892;45.668;11.756;2023-07-31T12:26:03;2.08;;;1.05;;
55312;SDS011;46892;45.668;11.756;2023-07-31T12:28:45;2.65;;;0.95;;
55312;SDS011;46892;45.668;11.756;2023-07-31T12:33:40;1.58;;;1.02;;
55312;SDS011;46892;45.668;11.756;2023-07-31T12:36:10;1.65;;;1.10;;
55312;SDS011;46892;45.668;11.756;2023-07-31T12:38:41;2.95;;;1.00;;
55312;SDS011;46892;45.668;11.756;2023-07-31T12:41:07;1.63;;;0.95;;
55312;SDS011;46892;45.668;11.756;2023-07-31T12:43:36;2.35;;;1.10;;
55312;SDS011;46892;45.668;11.756;2023-07-31T12:48:29;0.95;;;0.82;;
55312;SDS011;46892;45.668;11.756;2023-07-31T12:50:56;2.15;;;0.95;;
55312;SDS011;46892;45.668;11.756;2023-07-31T12:53:22;1.63;;;0.98;;
55312;SDS011;46892;45.668;11.756;2023-07-31T12:55:47;1.75;;;1.10;;
55312;SDS011;46892;45.668;11.756;2023-07-31T12:58:13;1.40;;;1.10;;
55312;SDS011;46892;45.668;11.756;2023-07-31T13:00:39;1.17;;;0.98;;
55312;SDS011;46892;45.668;11.756;2023-07-31T13:03:05;1.17;;;1.00;;
55312;SDS011;46892;45.668;11.756;2023-07-31T13:05:30;1.50;;;1.13;;
55312;SDS011;46892;45.668;11.756;2023-07-31T13:07:56;1.40;;;0.95;;
55312;SDS011;46892;45.668;11.756;2023-07-31T13:10:22;1.63;;;1.00;;
55312;SDS011;46892;45.668;11.756;2023-07-31T13:12:48;1.58;;;1.10;;
55312;SDS011;46892;45.668;11.756;2023-07-31T13:15:15;1.48;;;0.93;;
55312;SDS011;46892;45.668;11.756;2023-07-31T13:17:40;1.85;;;1.10;;
55312;SDS011;46892;45.668;11.756;2023-07-31T13:20:07;2.03;;;1.00;;
55312;SDS011;46892;45.668;11.756;2023-07-31T13:22:33;1.90;;;1.27;;
55312;SDS011;46892;45.668;11.756;2023-07-31T13:24:59;2.45;;;1.10;;
55312;SDS011;46892;45.668;11.756;2023-07-31T13:27:24;0.95;;;0.80;;
55312;SDS011;46892;45.668;11.756;2023-07-31T13:29:51;1.45;;;1.00;;
55312;SDS011;46892;45.668;11.756;2023-07-31T13:32:17;1.38;;;0.90;;
55312;SDS011;46892;45.668;11.756;2023-07-31T13:34:44;1.17;;;0.80;;
55312;SDS011;46892;45.668;11.756;2023-07-31T13:37:11;1.30;;;1.10;;
55312;SDS011;46892;45.668;11.756;2023-07-31T13:39:37;2.40;;;1.15;;
55312;SDS011;46892;45.668;11.756;2023-07-31T13:42:03;1.75;;;0.98;;
55312;SDS011;46892;45.668;11.756;2023-07-31T13:44:31;1.17;;;1.00;;
55312;SDS011;46892;45.668;11.756;2023-07-31T13:46:58;1.25;;;0.90;;
55312;SDS011;46892;45.668;11.756;2023-07-31T13:49:24;2.35;;;1.10;;
55312;SDS011;46892;45.668;11.756;2023-07-31T13:51:50;3.10;;;1.02;;
55312;SDS011;46892;45.668;11.756;2023-07-31T13:54:15;2.38;;;1.02;;
55312;SDS011;46892;45.668;11.756;2023-07-31T13:56:42;2.15;;;1.30;;
55312;SDS011;46892;45.668;11.756;2023-07-31T13:59:08;1.92;;;1.10;;
55312;SDS011;46892;45.668;11.756;2023-07-31T14:01:34;1.40;;;1.05;;
55312;SDS011;46892;45.668;11.756;2023-07-31T14:03:59;1.55;;;0.80;;
55312;SDS011;46892;45.668;11.756;2023-07-31T14:06:25;1.10;;;1.00;;
55312;SDS011;46892;45.668;11.756;2023-07-31T14:08:51;1.65;;;0.95;;
55312;SDS011;46892;45.668;11.756;2023-07-31T14:11:17;1.90;;;1.00;;
55312;SDS011;46892;45.668;11.756;2023-07-31T14:13:42;1.35;;;0.85;;
55312;SDS011;46892;45.668;11.756;2023-07-31T14:16:08;1.30;;;1.00;;
55312;SDS011;46892;45.668;11.756;2023-07-31T14:18:34;1.40;;;0.95;;
55312;SDS011;46892;45.668;11.756;2023-07-31T14:21:00;2.33;;;1.05;;
55312;SDS011;46892;45.668;11.756;2023-07-31T14:23:25;1.55;;;0.93;;
55312;SDS011;46892;45.668;11.756;2023-07-31T14:25:51;2.13;;;1.13;;
55312;SDS011;46892;45.668;11.756;2023-07-31T14:28:17;1.83;;;1.15;;
55312;SDS011;46892;45.668;11.756;2023-07-31T14:30:42;2.58;;;1.27;;
55312;SDS011;46892;45.668;11.756;2023-07-31T14:33:08;1.77;;;1.08;;
55312;SDS011;46892;45.668;11.756;2023-07-31T14:35:34;1.33;;;0.90;;
55312;SDS011;46892;45.668;11.756;2023-07-31T14:38:00;1.08;;;0.90;;
55312;SDS011;46892;45.668;11.756;2023-07-31T14:40:26;1.55;;;0.88;;
55312;SDS011;46892;45.668;11.756;2023-07-31T14:42:52;2.05;;;1.05;;
55312;SDS011;46892;45.668;11.756;2023-07-31T14:45:18;1.55;;;0.90;;
55312;SDS011;46892;45.668;11.756;2023-07-31T14:47:44;2.15;;;1.00;;
55312;SDS011;46892;45.668;11.756;2023-07-31T14:50:09;1.98;;;1.10;;
55312;SDS011;46892;45.668;11.756;2023-07-31T14:52:35;1.13;;;0.88;;
55312;SDS011;46892;45.668;11.756;2023-07-31T14:55:01;2.50;;;0.98;;
55312;SDS011;46892;45.668;11.756;2023-07-31T14:57:27;2.45;;;1.17;;